Time;durP1;ratioP1;P1;durP2;ratioP2;P2;SDS_P1;SDS_P2;PMS_P1;PMS_P2;Temp;Humidity;BMP_temperature;BMP_pressure;BME280_temperature;BME280_humidity;BME280_pressure;Samples;Min_cycle;Max_cycle;Signal;HPM_P1;HPM_P2
2021/04/24 00:00:33;;;;;;;11.35;6.68;;;10.80;68.10;;;;;;5071709;28;20051;-70
2021/04/24 00:02:59;;;;;;;13.13;5.63;;;10.70;68.60;;;;;;5072239;28;20331;-70
2021/04/24 00:05:26;;;;;;;8.93;5.75;;;10.80;68.70;;;;;;5071713;28;20377;-69
2021/04/24 00:08:04;;;;;;;10.93;6.97;;;10.70;68.70;;;;;;5072259;28;20377;-69
2021/04/24 00:10:31;;;;;;;11.27;7.15;;;10.60;69.40;;;;;;5073008;28;20029;-69
2021/04/24 00:12:58;;;;;;;10.23;5.82;;;10.50;69.70;;;;;;5073749;28;20488;-71
2021/04/24 00:15:23;;;;;;;10.07;6.13;;;10.60;69.40;;;;;;5065437;28;20057;-70
2021/04/24 00:17:49;;;;;;;11.88;5.95;;;10.60;69.60;;;;;;5035345;28;20025;-70
2021/04/24 00:20:19;;;;;;;10.52;6.75;;;10.60;69.60;;;;;;5052765;28;20032;-70
2021/04/24 00:22:45;;;;;;;13.18;6.03;;;10.60;69.50;;;;;;5053011;28;20033;-70
2021/04/24 00:25:12;;;;;;;11.98;7.10;;;10.60;69.30;;;;;;5053274;28;20028;-71
2021/04/24 00:27:38;;;;;;;11.25;6.18;;;10.60;69.30;;;;;;5035341;28;20087;-71
2021/04/24 00:30:08;;;;;;;11.82;6.63;;;10.60;69.00;;;;;;5053180;28;20123;-70
2021/04/24 00:32:34;;;;;;;16.48;6.60;;;10.60;69.40;;;;;;5034704;28;20021;-70
2021/04/24 00:35:00;;;;;;;12.73;6.65;;;10.60;69.40;;;;;;5052964;28;20079;-70
2021/04/24 00:37:25;;;;;;;11.93;5.82;;;10.60;69.50;;;;;;5052540;28;20482;-71
2021/04/24 00:39:51;;;;;;;17.55;6.70;;;10.60;69.40;;;;;;5035022;28;20036;-71
2021/04/24 00:42:17;;;;;;;13.60;5.60;;;10.50;69.60;;;;;;5034324;28;20040;-70
2021/04/24 00:44:47;;;;;;;14.75;6.93;;;10.50;69.80;;;;;;5053471;28;20049;-70
2021/04/24 00:47:13;;;;;;;10.73;6.90;;;10.50;69.40;;;;;;5034019;28;20057;-74
2021/04/24 00:49:39;;;;;;;11.90;5.40;;;10.40;69.60;;;;;;5034823;28;20457;-70
2021/04/24 00:52:05;;;;;;;11.02;6.28;;;10.30;70.00;;;;;;5034735;28;20025;-70
2021/04/24 00:54:31;;;;;;;13.50;6.97;;;10.30;70.30;;;;;;5034075;28;20098;-71
2021/04/24 00:56:57;;;;;;;14.30;6.65;;;10.30;70.30;;;;;;5034819;28;20150;-70
2021/04/24 00:59:24;;;;;;;12.00;7.65;;;10.20;70.60;;;;;;5034270;28;20059;-70
2021/04/24 01:01:50;;;;;;;13.55;6.30;;;10.20;70.60;;;;;;5052556;28;20072;-70
2021/04/24 01:04:15;;;;;;;14.77;6.28;;;10.20;70.80;;;;;;5033985;28;20072;-71
2021/04/24 01:06:41;;;;;;;11.50;6.80;;;10.10;71.20;;;;;;5052599;28;20033;-70
2021/04/24 01:09:07;;;;;;;13.05;6.18;;;10.10;71.30;;;;;;5035093;28;20401;-70
2021/04/24 01:11:32;;;;;;;13.75;6.47;;;10.20;71.20;;;;;;5051903;28;20021;-69
2021/04/24 01:13:58;;;;;;;11.80;6.90;;;10.10;71.50;;;;;;5034411;28;20387;-72
2021/04/24 01:16:24;;;;;;;15.63;7.35;;;10.20;70.70;;;;;;5061161;28;20094;-70
2021/04/24 01:18:50;;;;;;;16.20;6.50;;;10.20;70.90;;;;;;5072007;28;20488;-70
2021/04/24 01:21:17;;;;;;;10.68;5.82;;;10.10;71.00;;;;;;5070537;28;20032;-71
2021/04/24 01:23:43;;;;;;;15.52;7.30;;;10.10;71.30;;;;;;5072693;28;20032;-70
2021/04/24 01:26:08;;;;;;;11.35;6.50;;;10.10;71.60;;;;;;5071946;28;20046;-70
2021/04/24 01:28:34;;;;;;;11.75;6.72;;;10.00;71.80;;;;;;5071365;28;20024;-70
2021/04/24 01:31:00;;;;;;;14.95;6.03;;;9.80;72.40;;;;;;5071957;28;20454;-71
2021/04/24 01:33:27;;;;;;;14.45;7.18;;;9.90;72.50;;;;;;5071473;28;20082;-71
2021/04/24 01:35:53;;;;;;;12.70;6.88;;;9.80;72.60;;;;;;5072111;28;20073;-71
2021/04/24 01:38:18;;;;;;;14.18;7.57;;;9.80;72.90;;;;;;5071052;28;20428;-71
2021/04/24 01:40:45;;;;;;;14.55;6.80;;;9.80;72.60;;;;;;5071782;28;20062;-71
2021/04/24 01:43:11;;;;;;;12.48;7.15;;;9.80;72.90;;;;;;5070496;28;20028;-70
2021/04/24 01:45:37;;;;;;;11.65;6.80;;;9.70;73.00;;;;;;5071426;28;20040;-71
2021/04/24 01:48:06;;;;;;;9.88;6.28;;;9.70;73.00;;;;;;5070280;28;20021;-70
2021/04/24 01:50:38;;;;;;;13.48;7.07;;;9.90;72.60;;;;;;5071135;28;20440;-70
2021/04/24 01:53:06;;;;;;;14.95;7.00;;;9.70;73.20;;;;;;5071751;28;20094;-70
2021/04/24 01:55:33;;;;;;;13.90;8.00;;;9.70;73.40;;;;;;5070970;28;20036;-70
2021/04/24 01:58:03;;;;;;;12.13;6.22;;;9.70;73.20;;;;;;5070157;28;20051;-71
2021/04/24 02:00:38;;;;;;;12.30;6.60;;;9.60;73.90;;;;;;5070734;28;20032;-69
2021/04/24 02:03:07;;;;;;;15.93;7.03;;;9.60;73.80;;;;;;5070163;28;20457;-70
2021/04/24 02:05:33;;;;;;;16.58;7.18;;;9.60;74.00;;;;;;5069329;28;20054;-70
2021/04/24 02:08:04;;;;;;;16.42;7.72;;;9.60;73.90;;;;;;5069916;28;20514;-70
2021/04/24 02:10:30;;;;;;;12.35;7.85;;;9.60;74.10;;;;;;5070512;28;20132;-71
2021/04/24 02:12:58;;;;;;;13.98;6.60;;;9.60;74.20;;;;;;5070990;28;20370;-71
2021/04/24 02:15:24;;;;;;;13.23;7.32;;;9.50;74.40;;;;;;5068324;28;20053;-71
2021/04/24 02:17:50;;;;;;;14.27;7.30;;;9.50;74.70;;;;;;5071312;28;20046;-71
2021/04/24 02:20:17;;;;;;;12.95;7.10;;;9.40;74.80;;;;;;5071004;28;20032;-71
2021/04/24 02:22:44;;;;;;;12.85;7.93;;;9.40;74.80;;;;;;5069707;28;20064;-71
2021/04/24 02:25:13;;;;;;;17.80;8.25;;;9.50;74.90;;;;;;5069538;28;20035;-70
2021/04/24 02:27:39;;;;;;;12.63;7.85;;;9.40;75.00;;;;;;5070476;28;20037;-72
2021/04/24 02:30:10;;;;;;;11.05;6.53;;;9.40;75.30;;;;;;5069514;28;20335;-70
2021/04/24 02:32:37;;;;;;;12.68;7.10;;;9.40;75.30;;;;;;5068972;28;20032;-71
2021/04/24 02:35:04;;;;;;;16.48;8.10;;;9.40;75.50;;;;;;5069426;28;20429;-70
2021/04/24 02:37:30;;;;;;;13.40;8.23;;;9.30;75.60;;;;;;5068547;28;20024;-71
2021/04/24 02:39:56;;;;;;;15.52;8.32;;;9.40;75.40;;;;;;5070828;28;20032;-70
2021/04/24 02:42:27;;;;;;;16.45;8.35;;;9.40;75.60;;;;;;5070548;28;20511;-71
2021/04/24 02:44:56;;;;;;;13.25;8.65;;;9.40;75.40;;;;;;5070815;28;20024;-70
2021/04/24 02:47:23;;;;;;;12.45;7.90;;;9.50;75.10;;;;;;5068449;28;20123;-71
2021/04/24 02:49:48;;;;;;;13.40;7.90;;;9.40;75.20;;;;;;5070726;28;20356;-70
2021/04/24 02:52:14;;;;;;;12.93;8.00;;;9.40;75.70;;;;;;5070872;28;20107;-70
2021/04/24 02:54:40;;;;;;;14.73;7.47;;;9.40;75.30;;;;;;5068910;28;20367;-71
2021/04/24 02:57:06;;;;;;;13.80;7.60;;;9.40;75.80;;;;;;5070602;28;20064;-71
2021/04/24 02:59:33;;;;;;;12.70;8.23;;;9.30;76.10;;;;;;5068701;28;20085;-70
2021/04/24 03:01:59;;;;;;;13.82;7.90;;;9.30;76.40;;;;;;5069338;28;20110;-71
2021/04/24 03:04:26;;;;;;;14.18;8.68;;;9.30;76.20;;;;;;5070094;28;20024;-71
2021/04/24 03:06:51;;;;;;;16.75;8.48;;;9.30;76.40;;;;;;5070968;28;20431;-70
2021/04/24 03:09:17;;;;;;;14.60;8.05;;;9.20;76.60;;;;;;5069181;28;20119;-70
2021/04/24 03:11:43;;;;;;;12.00;7.95;;;9.30;76.30;;;;;;5068508;28;20024;-71
2021/04/24 03:14:09;;;;;;;12.80;8.18;;;9.30;76.10;;;;;;5068877;28;20040;-71
2021/04/24 03:16:36;;;;;;;13.25;7.75;;;9.30;76.00;;;;;;5052798;28;20059;-71
2021/04/24 03:19:03;;;;;;;14.32;7.95;;;9.20;76.40;;;;;;5032275;28;20033;-71
2021/04/24 03:21:29;;;;;;;15.43;7.72;;;9.30;76.20;;;;;;5031687;28;20061;-70
2021/04/24 03:23:55;;;;;;;15.38;7.85;;;9.30;76.00;;;;;;5032228;28;20395;-72
2021/04/24 03:26:22;;;;;;;17.00;8.57;;;9.20;76.10;;;;;;5032607;28;20033;-71
2021/04/24 03:28:48;;;;;;;14.68;7.70;;;9.20;76.50;;;;;;5036598;28;20527;-71
2021/04/24 03:31:13;;;;;;;15.93;8.15;;;9.00;76.70;;;;;;5054383;28;20104;-71
2021/04/24 03:33:40;;;;;;;13.25;7.63;;;9.10;76.60;;;;;;5053687;28;20021;-71
2021/04/24 03:36:07;;;;;;;15.27;8.27;;;9.10;76.60;;;;;;5054003;28;20112;-71
2021/04/24 03:38:32;;;;;;;12.93;8.00;;;9.10;76.60;;;;;;5053399;28;20029;-70
2021/04/24 03:40:58;;;;;;;13.07;8.30;;;9.10;76.70;;;;;;5054353;28;20031;-70
2021/04/24 03:43:24;;;;;;;15.82;8.27;;;9.00;77.00;;;;;;5035262;28;20029;-71
2021/04/24 03:45:50;;;;;;;15.65;8.55;;;8.90;77.40;;;;;;5036391;28;20021;-71
2021/04/24 03:48:15;;;;;;;13.98;8.23;;;8.80;77.60;;;;;;5036312;28;20355;-71
2021/04/24 03:50:41;;;;;;;13.63;7.85;;;8.80;77.80;;;;;;5035664;28;20033;-72
2021/04/24 03:53:07;;;;;;;13.73;8.13;;;8.80;78.00;;;;;;5053993;28;20029;-71
2021/04/24 03:55:33;;;;;;;14.18;8.52;;;8.80;78.10;;;;;;5035605;28;20361;-71
2021/04/24 03:58:00;;;;;;;15.95;9.40;;;8.80;78.20;;;;;;5036254;28;20128;-72
2021/04/24 04:00:28;;;;;;;14.25;8.65;;;8.90;78.30;;;;;;5053056;28;20516;-72
2021/04/24 04:02:57;;;;;;;14.00;8.95;;;8.80;78.00;;;;;;5053664;28;20029;-71
2021/04/24 04:05:30;;;;;;;14.95;8.35;;;8.80;78.00;;;;;;5053782;28;20496;-72
2021/04/24 04:07:56;;;;;;;17.30;9.20;;;8.80;77.90;;;;;;5035868;28;20025;-71
2021/04/24 04:10:23;;;;;;;15.02;7.70;;;8.70;78.10;;;;;;5053835;28;20399;-71
2021/04/24 04:12:49;;;;;;;12.13;8.65;;;8.70;78.60;;;;;;5052901;28;20025;-70
2021/04/24 04:15:16;;;;;;;15.57;9.07;;;8.70;78.90;;;;;;5053421;28;20057;-71
2021/04/24 04:17:52;;;;;;;26.63;9.23;;;8.50;79.50;;;;;;5034980;28;20036;-71
2021/04/24 04:20:18;;;;;;;20.17;8.57;;;8.50;79.40;;;;;;5035251;28;20064;-71
2021/04/24 04:22:43;;;;;;;16.95;8.95;;;8.50;79.50;;;;;;5052840;28;20068;-70
2021/04/24 04:25:10;;;;;;;18.10;8.45;;;8.50;79.40;;;;;;5053592;28;20029;-71
2021/04/24 04:27:36;;;;;;;16.00;7.75;;;8.60;79.10;;;;;;5034292;28;20025;-71
2021/04/24 04:30:02;;;;;;;13.13;8.18;;;8.50;79.20;;;;;;5035188;28;20033;-71
2021/04/24 04:32:27;;;;;;;18.40;8.05;;;8.60;79.20;;;;;;5052619;28;20029;-71
2021/04/24 04:34:53;;;;;;;16.27;8.10;;;8.70;78.80;;;;;;5052728;28;20069;-71
2021/04/24 04:37:18;;;;;;;13.02;7.75;;;8.80;78.60;;;;;;5052587;28;20021;-71
2021/04/24 04:39:44;;;;;;;15.63;7.63;;;8.90;78.30;;;;;;5034434;28;20474;-71
2021/04/24 04:42:10;;;;;;;15.73;9.00;;;9.00;78.30;;;;;;5034867;28;20110;-71
2021/04/24 04:44:35;;;;;;;13.80;8.57;;;8.90;78.10;;;;;;5052228;28;20144;-71
2021/04/24 04:47:01;;;;;;;15.40;8.93;;;8.80;78.60;;;;;;5035043;28;20033;-71
2021/04/24 04:49:27;;;;;;;12.57;7.78;;;8.70;78.70;;;;;;5052514;28;20029;-74
2021/04/24 04:51:53;;;;;;;14.75;8.88;;;8.80;78.90;;;;;;5052590;28;20104;-71
2021/04/24 04:54:19;;;;;;;15.25;7.28;;;8.90;78.30;;;;;;5052908;28;20113;-70
2021/04/24 04:56:44;;;;;;;13.98;8.45;;;8.80;78.30;;;;;;5034384;28;20356;-71
2021/04/24 04:59:10;;;;;;;16.02;8.38;;;8.80;78.40;;;;;;5052669;28;20055;-71
2021/04/24 05:01:35;;;;;;;12.88;7.82;;;8.60;79.10;;;;;;5051714;28;20064;-71
2021/04/24 05:04:01;;;;;;;16.20;8.00;;;8.60;79.10;;;;;;5034428;28;20222;-70
2021/04/24 05:06:27;;;;;;;17.35;8.13;;;8.70;79.10;;;;;;5034580;28;20123;-71
2021/04/24 05:08:52;;;;;;;12.35;8.10;;;8.70;79.20;;;;;;5033908;28;20025;-70
2021/04/24 05:11:18;;;;;;;13.10;8.13;;;8.70;79.20;;;;;;5052350;28;20025;-71
2021/04/24 05:13:43;;;;;;;16.65;7.95;;;8.60;79.30;;;;;;5051738;28;20060;-71
2021/04/24 05:16:11;;;;;;;16.23;7.53;;;8.80;79.30;;;;;;5052407;28;20049;-72
2021/04/24 05:18:36;;;;;;;16.13;8.13;;;8.80;78.90;;;;;;5033390;28;20026;-72
2021/04/24 05:21:03;;;;;;;17.55;7.50;;;8.90;78.80;;;;;;5052249;28;20040;-71
2021/04/24 05:23:29;;;;;;;18.08;8.30;;;9.00;78.80;;;;;;5052143;28;20033;-77
2021/04/24 05:25:55;;;;;;;14.75;8.52;;;9.10;78.20;;;;;;5034343;28;20112;-71
2021/04/24 05:28:20;;;;;;;16.17;7.50;;;9.20;77.60;;;;;;5034321;28;20475;-72
2021/04/24 05:30:46;;;;;;;13.25;8.15;;;9.10;77.80;;;;;;5051688;28;20040;-72
2021/04/24 05:33:12;;;;;;;12.45;7.90;;;9.00;78.00;;;;;;5034289;28;20031;-72
2021/04/24 05:35:37;;;;;;;12.38;6.93;;;8.90;78.40;;;;;;5051188;28;20386;-73
2021/04/24 05:38:03;;;;;;;16.15;8.73;;;8.90;78.60;;;;;;5051859;28;20025;-72
2021/04/24 05:40:30;;;;;;;14.35;8.43;;;8.80;79.00;;;;;;5052106;28;20025;-72
2021/04/24 05:42:55;;;;;;;11.27;7.60;;;8.80;79.10;;;;;;5034074;28;20040;-72
2021/04/24 05:45:21;;;;;;;14.65;7.32;;;8.80;78.90;;;;;;5052494;28;20036;-72
2021/04/24 05:47:49;;;;;;;16.95;7.95;;;8.90;79.30;;;;;;5051216;28;20036;-72
2021/04/24 05:50:19;;;;;;;14.63;7.75;;;9.00;79.00;;;;;;5051169;28;20021;-71
2021/04/24 05:52:44;;;;;;;20.33;8.95;;;9.30;78.40;;;;;;5051513;28;20108;-72
2021/04/24 05:55:12;;;;;;;12.57;7.47;;;9.40;77.90;;;;;;5033888;28;20064;-73
2021/04/24 05:57:38;;;;;;;15.80;8.35;;;9.40;77.90;;;;;;5051256;28;20025;-72
2021/04/24 06:00:11;;;;;;;14.38;7.80;;;9.40;77.70;;;;;;5033813;28;20036;-74
2021/04/24 06:02:37;;;;;;;14.27;8.25;;;9.50;77.50;;;;;;5051182;28;20312;-72
2021/04/24 06:05:05;;;;;;;22.35;9.73;;;9.30;78.30;;;;;;5051347;28;20041;-72
2021/04/24 06:07:30;;;;;;;16.23;7.90;;;9.40;77.80;;;;;;5033403;28;20090;-72
2021/04/24 06:09:56;;;;;;;20.13;9.10;;;9.50;77.80;;;;;;5032759;28;20072;-72
2021/04/24 06:12:22;;;;;;;14.15;7.43;;;9.50;77.70;;;;;;5050944;28;20585;-71
2021/04/24 06:14:47;;;;;;;21.77;9.32;;;9.50;77.90;;;;;;5050446;28;20470;-72
2021/04/24 06:17:13;;;;;;;15.82;7.60;;;9.60;77.80;;;;;;5051069;28;20056;-72
2021/04/24 06:19:39;;;;;;;19.25;8.07;;;9.70;77.00;;;;;;5032296;28;20132;-71
2021/04/24 06:22:06;;;;;;;18.77;8.25;;;9.70;77.30;;;;;;5033301;28;20029;-72
2021/04/24 06:24:31;;;;;;;15.48;8.18;;;9.80;77.10;;;;;;5032935;28;20052;-72
2021/04/24 06:26:57;;;;;;;19.35;8.75;;;9.80;77.00;;;;;;5050708;28;20057;-72
2021/04/24 06:29:23;;;;;;;17.33;8.65;;;10.00;76.20;;;;;;5051445;28;20479;-72
2021/04/24 06:31:48;;;;;;;15.43;8.32;;;10.10;76.00;;;;;;5033291;28;20025;-72
2021/04/24 06:34:14;;;;;;;16.02;8.90;;;10.20;75.50;;;;;;5033689;28;20104;-71
2021/04/24 06:36:40;;;;;;;14.40;7.88;;;10.40;75.20;;;;;;5032619;28;20025;-72
2021/04/24 06:39:06;;;;;;;18.85;9.68;;;10.40;74.70;;;;;;5050679;28;20488;-71
2021/04/24 06:41:33;;;;;;;13.27;8.15;;;10.50;74.60;;;;;;5033245;28;20392;-73
2021/04/24 06:44:00;;;;;;;14.20;8.55;;;10.60;74.50;;;;;;5032864;28;20394;-72
2021/04/24 06:46:25;;;;;;;13.48;8.65;;;10.70;74.10;;;;;;5051113;28;20382;-72
2021/04/24 06:48:51;;;;;;;18.05;8.30;;;10.70;74.50;;;;;;5032415;28;20074;-72
2021/04/24 06:51:17;;;;;;;11.27;7.65;;;10.70;74.50;;;;;;5050996;28;20383;-72
2021/04/24 06:53:42;;;;;;;15.13;8.60;;;10.80;74.10;;;;;;5050000;28;20032;-74
2021/04/24 06:56:08;;;;;;;18.17;8.35;;;10.90;74.10;;;;;;5032861;28;20028;-74
2021/04/24 06:58:35;;;;;;;18.52;8.55;;;11.10;73.70;;;;;;5032898;28;20032;-73
2021/04/24 07:01:00;;;;;;;13.25;8.93;;;11.20;73.70;;;;;;5032945;28;20029;-72
2021/04/24 07:03:26;;;;;;;15.77;7.53;;;11.30;73.30;;;;;;5051128;28;20033;-72
2021/04/24 07:05:52;;;;;;;17.15;9.18;;;11.50;72.50;;;;;;5049505;28;20032;-72
2021/04/24 07:08:18;;;;;;;14.05;7.85;;;11.20;72.50;;;;;;5049905;28;20025;-72
2021/04/24 07:10:45;;;;;;;11.98;8.25;;;11.40;72.50;;;;;;5031660;28;20039;-71
2021/04/24 07:13:11;;;;;;;14.93;7.95;;;11.20;73.00;;;;;;5050317;28;20054;-72
2021/04/24 07:15:37;;;;;;;14.13;9.20;;;11.20;73.60;;;;;;5049355;28;20068;-73
2021/04/24 07:18:04;;;;;;;17.02;8.70;;;11.60;72.80;;;;;;5032200;28;20021;-72
2021/04/24 07:20:29;;;;;;;11.77;7.28;;;11.80;71.70;;;;;;5049885;28;20025;-72
2021/04/24 07:22:55;;;;;;;13.32;8.02;;;11.80;71.30;;;;;;5031871;28;20033;-72
2021/04/24 07:25:21;;;;;;;17.10;7.13;;;11.80;70.90;;;;;;5032201;28;20537;-72
2021/04/24 07:27:46;;;;;;;11.07;7.22;;;11.90;71.30;;;;;;5031930;28;20029;-73
2021/04/24 07:30:12;;;;;;;17.02;8.48;;;12.20;70.30;;;;;;5050541;28;20029;-73
2021/04/24 07:32:39;;;;;;;15.15;7.30;;;12.60;69.80;;;;;;5031062;28;20031;-73
2021/04/24 07:35:06;;;;;;;19.73;7.40;;;12.60;69.20;;;;;;5032104;28;20040;-73
2021/04/24 07:37:32;;;;;;;13.23;7.65;;;12.80;68.40;;;;;;5050399;28;20029;-72
2021/04/24 07:39:58;;;;;;;11.68;6.82;;;12.60;68.60;;;;;;5031464;28;20505;-73
2021/04/24 07:42:24;;;;;;;13.27;6.80;;;12.70;68.70;;;;;;5032455;28;20102;-73
2021/04/24 07:44:49;;;;;;;15.93;7.53;;;13.00;68.50;;;;;;5031891;28;20458;-72
2021/04/24 07:47:15;;;;;;;19.17;7.15;;;13.20;67.50;;;;;;5051161;28;20029;-73
2021/04/24 07:49:41;;;;;;;11.63;6.82;;;13.30;67.10;;;;;;5031987;28;20029;-73
2021/04/24 07:52:08;;;;;;;12.77;6.38;;;13.40;66.70;;;;;;5050354;28;20033;-73
2021/04/24 07:54:42;;;;;;;31.20;8.30;;;13.50;66.60;;;;;;5050348;28;20048;-73
2021/04/24 07:57:17;;;;;;;9.88;6.53;;;13.50;66.20;;;;;;5040339;28;20500;-72
2021/04/24 07:59:44;;;;;;;10.02;6.15;;;13.50;67.30;;;;;;5051779;28;20432;-65
2021/04/24 08:02:12;;;;;;;7.75;3.40;;;13.60;74.80;;;;;;5053110;28;20051;-49
2021/04/24 08:04:38;;;;;;;7.03;4.97;;;15.10;73.40;;;;;;5069388;28;20033;-49
2021/04/24 08:07:06;;;;;;;11.40;5.93;;;15.10;70.20;;;;;;5051783;28;20120;-50
2021/04/24 08:09:32;;;;;;;11.50;5.07;;;15.80;66.00;;;;;;5051867;28;20059;-49
2021/04/24 08:11:58;;;;;;;13.65;6.05;;;16.20;65.30;;;;;;5069207;28;20036;-50
2021/04/24 08:14:23;;;;;;;12.15;5.75;;;15.80;65.60;;;;;;5055475;28;20087;-49
2021/04/24 08:16:49;;;;;;;13.80;5.35;;;16.20;62.50;;;;;;5072475;28;20091;-49
2021/04/24 08:19:15;;;;;;;9.73;5.47;;;16.60;63.90;;;;;;5073241;28;20339;-50
2021/04/24 08:21:42;;;;;;;12.88;5.53;;;16.90;62.40;;;;;;5054921;28;20039;-56
2021/04/24 08:24:08;;;;;;;5.28;3.03;;;16.80;62.90;;;;;;5055339;28;20028;-49
2021/04/24 08:26:34;;;;;;;7.85;4.43;;;17.30;65.50;;;;;;5073270;28;20119;-49
2021/04/24 08:29:00;;;;;;;10.70;4.45;;;17.60;62.60;;;;;;5072714;28;20617;-50
2021/04/24 08:31:26;;;;;;;10.40;5.32;;;17.80;61.80;;;;;;5055182;28;20107;-49
2021/04/24 08:33:52;;;;;;;13.10;4.45;;;18.00;61.30;;;;;;5072575;28;20020;-49
2021/04/24 08:36:17;;;;;;;10.98;4.72;;;18.20;60.30;;;;;;5072596;28;20077;-49
2021/04/24 08:38:43;;;;;;;10.55;5.63;;;18.40;60.00;;;;;;5072169;28;20103;-49
2021/04/24 08:41:09;;;;;;;9.52;4.63;;;18.40;57.70;;;;;;5072552;28;20031;-50
2021/04/24 08:43:38;;;;;;;15.73;4.40;;;18.50;58.10;;;;;;5072405;28;20036;-48
2021/04/24 08:46:05;;;;;;;7.63;4.68;;;18.70;58.70;;;;;;5072233;28;20043;-49
2021/04/24 08:48:33;;;;;;;10.35;4.65;;;18.80;56.80;;;;;;5053850;28;20025;-50
2021/04/24 08:50:59;;;;;;;7.03;4.28;;;18.80;56.00;;;;;;5053770;28;20044;-51
2021/04/24 08:53:25;;;;;;;10.95;4.75;;;19.00;57.10;;;;;;5054444;28;20028;-50
2021/04/24 08:55:51;;;;;;;8.68;4.50;;;19.10;55.10;;;;;;5071633;28;20101;-49
2021/04/24 08:58:17;;;;;;;7.80;3.42;;;19.20;54.20;;;;;;5054156;28;20029;-49
2021/04/24 09:00:46;;;;;;;10.88;4.85;;;19.50;55.50;;;;;;5071559;28;20029;-49
2021/04/24 09:03:16;;;;;;;11.70;4.00;;;19.60;54.10;;;;;;5072075;28;20037;-50
2021/04/24 09:05:43;;;;;;;11.10;4.17;;;19.60;53.50;;;;;;5071704;28;20020;-62
2021/04/24 09:08:10;;;;;;;8.02;4.80;;;20.10;53.20;;;;;;5053765;28;20047;-50
2021/04/24 09:10:43;;;;;;;7.32;3.55;;;19.90;51.00;;;;;;5053799;28;20131;-49
2021/04/24 09:13:21;;;;;;;14.18;4.13;;;19.80;53.30;;;;;;5072040;28;20081;-50
2021/04/24 09:15:48;;;;;;;10.05;4.80;;;19.80;51.90;;;;;;5053441;28;20048;-50
2021/04/24 09:18:15;;;;;;;27.33;5.85;;;20.00;50.90;;;;;;5092443;28;20020;-48
2021/04/24 09:20:48;;;;;;;19.75;4.22;;;20.20;59.40;;;;;;5091830;28;20122;-48
2021/04/24 09:23:17;;;;;;;13.48;4.95;;;20.70;66.70;;;;;;5091671;28;20024;-48
2021/04/24 09:25:46;;;;;;;8.82;4.18;;;20.40;66.30;;;;;;5090401;28;20024;-48
2021/04/24 09:28:23;;;;;;;10.27;4.85;;;20.20;56.40;;;;;;5091867;28;20030;-48
2021/04/24 09:30:49;;;;;;;10.80;3.85;;;20.10;60.40;;;;;;5091104;28;20032;-47
2021/04/24 09:33:15;;;;;;;8.02;4.15;;;20.30;59.20;;;;;;5091080;28;20516;-46
2021/04/24 09:36:08;;;;;;;8.15;4.43;;;20.10;52.60;;;;;;5090106;28;20038;-47
2021/04/24 09:38:39;;;;;;;6.97;4.55;;;20.40;61.60;;;;;;5084599;28;20067;-48
2021/04/24 09:41:17;;;;;;;6.72;3.53;;;20.50;52.00;;;;;;5085900;28;20078;-50
2021/04/24 09:44:09;;;;;;;7.57;4.03;;;20.50;59.90;;;;;;5087487;28;20415;-49
2021/04/24 09:46:41;;;;;;;;;;;20.80;53.20;;;;;;5069161;28;20599;-51
2021/04/24 09:49:11;;;;;;;11.15;3.60;;;21.00;53.80;;;;;;5069121;28;20354;-50
2021/04/24 09:51:42;;;;;;;9.00;4.75;;;21.20;53.30;;;;;;5089390;28;20083;-48
2021/04/24 09:54:09;;;;;;;10.00;4.40;;;21.20;51.30;;;;;;5089204;28;20323;-49
2021/04/24 09:56:34;;;;;;;14.00;5.38;;;21.20;52.20;;;;;;5089909;28;20060;-47
2021/04/24 09:59:06;;;;;;;12.15;3.35;;;21.10;50.50;;;;;;5089401;28;20453;-55
2021/04/24 10:01:32;;;;;;;7.80;3.25;;;21.40;55.30;;;;;;5089960;28;20044;-55
2021/04/24 10:04:00;;;;;;;9.13;4.13;;;21.30;54.50;;;;;;5089189;28;20047;-48
2021/04/24 10:06:26;;;;;;;54.13;12.93;;;21.40;51.70;;;;;;5090852;28;20502;-48
2021/04/24 10:09:11;;;;;;;23.90;6.78;;;21.40;56.20;;;;;;5089778;28;20023;-50
2021/04/24 10:11:38;;;;;;;14.35;4.63;;;21.20;69.20;;;;;;5091028;28;20108;-49
2021/04/24 10:14:05;;;;;;;15.68;5.72;;;21.60;64.10;;;;;;5089302;28;20043;-48
2021/04/24 10:16:43;;;;;;;12.75;5.30;;;21.50;52.50;;;;;;5073774;28;20052;-48
2021/04/24 10:19:16;;;;;;;14.82;4.90;;;21.90;50.40;;;;;;5069781;28;20120;-48
2021/04/24 10:21:44;;;;;;;13.63;5.63;;;21.80;60.10;;;;;;5070578;28;20052;-47
2021/04/24 10:24:11;;;;;;;8.07;4.93;;;21.60;57.50;;;;;;5051280;28;20028;-48
2021/04/24 10:26:39;;;;;;;7.85;5.28;;;21.80;60.10;;;;;;5052875;28;20429;-66
2021/04/24 10:29:05;;;;;;;8.70;5.10;;;22.00;49.60;;;;;;5052088;28;20477;-68
2021/04/24 10:31:33;;;;;;;12.27;6.43;;;21.90;49.20;;;;;;5071218;28;20032;-67
2021/04/24 10:33:59;;;;;;;10.95;5.95;;;22.00;47.80;;;;;;5052858;28;20025;-66
2021/04/24 10:36:29;;;;;;;10.80;5.78;;;22.00;47.10;;;;;;5053033;28;20064;-67
2021/04/24 10:38:57;;;;;;;14.52;6.32;;;22.10;47.30;;;;;;5052194;28;20025;-68
2021/04/24 10:41:31;;;;;;;12.75;5.97;;;21.80;47.60;;;;;;5052294;28;20057;-66
2021/04/24 10:44:11;;;;;;;7.60;5.43;;;21.80;48.30;;;;;;5051337;28;20036;-65
2021/04/24 10:46:45;;;;;;;12.02;6.13;;;22.00;47.50;;;;;;5053130;28;20069;-66
2021/04/24 10:49:25;;;;;;;10.05;5.47;;;22.20;46.90;;;;;;5069537;28;20165;-66
2021/04/24 10:51:58;;;;;;;13.80;6.38;;;22.30;45.60;;;;;;5070154;28;20033;-65
2021/04/24 10:54:31;;;;;;;9.02;5.53;;;22.40;47.40;;;;;;5070571;28;20427;-67
2021/04/24 10:56:58;;;;;;;9.73;6.40;;;22.40;46.70;;;;;;5069831;28;20040;-66
2021/04/24 10:59:29;;;;;;;17.00;6.60;;;22.60;46.90;;;;;;5051978;28;20479;-67
2021/04/24 11:02:06;;;;;;;10.95;5.53;;;22.70;46.50;;;;;;5051061;28;20040;-65
2021/04/24 11:04:49;;;;;;;12.73;6.97;;;22.90;46.50;;;;;;5052013;28;20120;-66
2021/04/24 11:07:19;;;;;;;11.45;6.65;;;22.90;45.60;;;;;;5069219;28;20462;-66
2021/04/24 11:10:04;;;;;;;10.50;6.20;;;22.60;44.90;;;;;;5052006;28;20029;-66
2021/04/24 11:12:32;;;;;;;10.93;6.53;;;22.50;44.90;;;;;;5051897;28;20060;-68
2021/04/24 11:15:01;;;;;;;9.35;5.90;;;22.60;44.40;;;;;;5054562;28;20396;-66
2021/04/24 11:17:30;;;;;;;9.48;5.57;;;22.20;45.40;;;;;;5088715;28;20071;-67
2021/04/24 11:19:56;;;;;;;10.63;5.95;;;22.70;48.00;;;;;;5089252;28;20054;-68
2021/04/24 11:22:36;;;;;;;7.80;5.15;;;22.60;45.40;;;;;;5089942;28;20044;-67
2021/04/24 11:25:33;;;;;;;8.75;6.22;;;22.70;45.20;;;;;;5088029;28;20458;-66
2021/04/24 11:28:05;;;;;;;9.93;5.65;;;22.60;44.30;;;;;;5066603;28;20048;-66
2021/04/24 11:30:51;;;;;;;7.50;5.30;;;22.10;46.40;;;;;;5066504;28;20064;-67
2021/04/24 11:33:36;;;;;;;9.57;5.65;;;21.50;46.80;;;;;;5066014;28;20107;-66
2021/04/24 11:36:13;;;;;;;8.55;5.20;;;22.30;47.10;;;;;;5065670;28;20111;-67
2021/04/24 11:39:06;;;;;;;10.68;5.65;;;22.70;46.40;;;;;;5050074;28;20086;-67
2021/04/24 11:41:32;;;;;;;5.85;4.25;;;22.80;45.20;;;;;;5060188;28;20048;-66
2021/04/24 11:44:00;;;;;;;7.45;5.55;;;22.80;47.60;;;;;;5049440;28;20134;-65
2021/04/24 11:46:46;;;;;;;8.35;5.53;;;22.80;45.00;;;;;;5049556;28;20029;-66
2021/04/24 11:49:19;;;;;;;8.52;5.35;;;23.00;44.70;;;;;;5052011;28;20064;-65
2021/04/24 11:51:54;;;;;;;11.85;6.22;;;23.20;44.50;;;;;;5070482;28;20032;-65
2021/04/24 11:54:32;;;;;;;13.02;6.65;;;22.90;44.80;;;;;;5053023;28;20024;-66
2021/04/24 11:57:00;;;;;;;7.45;5.10;;;23.00;45.10;;;;;;5053131;28;20476;-68
2021/04/24 11:59:32;;;;;;;6.85;4.97;;;23.00;45.60;;;;;;5070733;28;20143;-65
2021/04/24 12:02:02;;;;;;;10.35;5.60;;;23.00;44.80;;;;;;5036560;28;20037;-68
2021/04/24 12:04:31;;;;;;;7.60;4.60;;;23.00;44.80;;;;;;5068572;28;20047;-66
2021/04/24 12:07:14;;;;;;;7.38;4.90;;;23.00;47.30;;;;;;5070209;28;20418;-66
2021/04/24 12:09:50;;;;;;;8.75;5.35;;;23.30;43.60;;;;;;5053518;28;20040;-66
2021/04/24 12:12:18;;;;;;;12.23;5.97;;;23.40;44.30;;;;;;5077446;28;20123;-66
2021/04/24 12:14:44;;;;;;;8.20;6.07;;;23.30;44.30;;;;;;5090972;28;20035;-66
2021/04/24 12:17:12;;;;;;;8.48;5.57;;;22.70;44.70;;;;;;5054043;28;20029;-66
2021/04/24 12:19:39;;;;;;;8.40;5.40;;;22.70;44.30;;;;;;5038810;28;20029;-66
2021/04/24 12:22:19;;;;;;;11.68;5.93;;;22.60;44.20;;;;;;5072832;28;20116;-67
2021/04/24 12:25:04;;;;;;;11.55;5.28;;;22.90;44.40;;;;;;5073473;28;20033;-66
2021/04/24 12:27:51;;;;;;;9.65;5.85;;;22.90;44.60;;;;;;5055486;28;20028;-67
2021/04/24 12:30:22;;;;;;;8.93;4.03;;;22.80;42.60;;;;;;5053973;28;20079;-66
2021/04/24 12:32:49;;;;;;;9.32;5.95;;;22.90;44.00;;;;;;5073714;28;20378;-67
2021/04/24 12:35:22;;;;;;;7.90;5.18;;;23.30;43.00;;;;;;5073055;28;20162;-66
2021/04/24 12:37:56;;;;;;;8.07;4.45;;;23.40;44.90;;;;;;5072528;28;20029;-67
2021/04/24 12:40:22;;;;;;;7.78;5.60;;;23.40;42.80;;;;;;5054098;28;20099;-65
2021/04/24 12:42:50;;;;;;;7.65;4.82;;;23.30;41.70;;;;;;5072602;28;20500;-65
2021/04/24 12:45:22;;;;;;;7.32;4.32;;;23.40;44.20;;;;;;5071677;28;20458;-65
2021/04/24 12:47:49;;;;;;;9.82;5.22;;;23.40;43.90;;;;;;5054637;28;20142;-66